sensor_id;sensor_type;location;lat;lon;timestamp;pressure;altitude;pressure_sealevel;temperature;humidity
61674;BME280;47573;43.832;5.974;2022-07-23T00:02:53;95439.56;;;33.53;38.64
61674;BME280;47573;43.832;5.974;2022-07-23T00:07:53;95418.25;;;33.53;38.96
61674;BME280;47573;43.832;5.974;2022-07-23T00:12:56;95406.34;;;33.53;38.95
61674;BME280;47573;43.832;5.974;2022-07-23T00:17:57;95400.31;;;33.51;38.98
61674;BME280;47573;43.832;5.974;2022-07-23T00:22:58;95394.22;;;33.49;38.76
61674;BME280;47573;43.832;5.974;2022-07-23T00:28:03;95390.44;;;33.45;38.92
61674;BME280;47573;43.832;5.974;2022-07-23T00:33:05;95390.94;;;33.47;38.77
61674;BME280;47573;43.832;5.974;2022-07-23T00:38:06;95392.56;;;33.48;38.72
61674;BME280;47573;43.832;5.974;2022-07-23T00:43:09;95378.72;;;33.48;38.84
61674;BME280;47573;43.832;5.974;2022-07-23T00:48:09;95378.22;;;33.46;38.90
61674;BME280;47573;43.832;5.974;2022-07-23T00:53:10;95375.75;;;33.44;39.18
61674;BME280;47573;43.832;5.974;2022-07-23T00:58:12;95363.84;;;33.44;38.99
61674;BME280;47573;43.832;5.974;2022-07-23T01:03:13;95367.66;;;33.48;39.06
61674;BME280;47573;43.832;5.974;2022-07-23T01:08:14;95366.31;;;33.45;39.06
61674;BME280;47573;43.832;5.974;2022-07-23T01:13:16;95369.31;;;33.49;39.13
61674;BME280;47573;43.832;5.974;2022-07-23T01:18:17;95359.47;;;33.43;39.16
61674;BME280;47573;43.832;5.974;2022-07-23T01:23:19;95354.13;;;33.46;39.12
61674;BME280;47573;43.832;5.974;2022-07-23T01:28:20;95347.16;;;33.49;39.15
61674;BME280;47573;43.832;5.974;2022-07-23T01:33:21;95336.16;;;33.44;39.06
61674;BME280;47573;43.832;5.974;2022-07-23T01:38:23;95336.16;;;33.44;39.27
61674;BME280;47573;43.832;5.974;2022-07-23T01:43:24;95329.00;;;33.43;38.84
61674;BME280;47573;43.832;5.974;2022-07-23T01:48:24;95331.28;;;33.41;38.97
61674;BME280;47573;43.832;5.974;2022-07-23T01:53:27;95331.88;;;33.38;38.98
61674;BME280;47573;43.832;5.974;2022-07-23T01:58:27;95328.00;;;33.39;39.19
61674;BME280;47573;43.832;5.974;2022-07-23T02:03:28;95325.72;;;33.41;39.41
61674;BME280;47573;43.832;5.974;2022-07-23T02:08:30;95329.63;;;33.40;39.26
61674;BME280;47573;43.832;5.974;2022-07-23T02:13:30;95317.03;;;33.34;38.97
61674;BME280;47573;43.832;5.974;2022-07-23T02:18:31;95311.66;;;33.37;38.93
61674;BME280;47573;43.832;5.974;2022-07-23T02:23:33;95323.06;;;33.36;38.96
61674;BME280;47573;43.832;5.974;2022-07-23T02:28:33;95317.94;;;33.43;38.84
61674;BME280;47573;43.832;5.974;2022-07-23T02:33:34;95306.44;;;33.36;39.24
61674;BME280;47573;43.832;5.974;2022-07-23T02:38:36;95307.28;;;33.36;39.44
61674;BME280;47573;43.832;5.974;2022-07-23T02:43:37;95303.59;;;33.41;39.68
61674;BME280;47573;43.832;5.974;2022-07-23T02:48:37;95305.03;;;33.38;39.15
61674;BME280;47573;43.832;5.974;2022-07-23T02:53:39;95311.75;;;33.46;39.15
61674;BME280;47573;43.832;5.974;2022-07-23T02:58:40;95294.66;;;33.44;39.27
61674;BME280;47573;43.832;5.974;2022-07-23T03:03:40;95286.53;;;33.47;39.29
61674;BME280;47573;43.832;5.974;2022-07-23T03:08:42;95294.56;;;33.49;39.22
61674;BME280;47573;43.832;5.974;2022-07-23T03:13:43;95307.38;;;33.45;39.41
61674;BME280;47573;43.832;5.974;2022-07-23T03:18:44;95309.75;;;33.51;39.68
61674;BME280;47573;43.832;5.974;2022-07-23T03:23:46;95327.47;;;33.50;39.31
61674;BME280;47573;43.832;5.974;2022-07-23T03:28:46;95324.59;;;33.42;39.58
61674;BME280;47573;43.832;5.974;2022-07-23T03:33:47;95330.25;;;33.37;39.45
61674;BME280;47573;43.832;5.974;2022-07-23T03:38:48;95325.31;;;33.34;39.67
61674;BME280;47573;43.832;5.974;2022-07-23T03:43:49;95322.03;;;33.32;39.20
61674;BME280;47573;43.832;5.974;2022-07-23T03:48:49;95318.97;;;33.33;39.42
61674;BME280;47573;43.832;5.974;2022-07-23T03:53:51;95318.13;;;33.33;39.60
61674;BME280;47573;43.832;5.974;2022-07-23T03:58:52;95325.13;;;33.30;39.34
61674;BME280;47573;43.832;5.974;2022-07-23T04:03:53;95315.69;;;33.31;39.20
61674;BME280;47573;43.832;5.974;2022-07-23T04:08:54;95309.94;;;33.28;39.17
61674;BME280;47573;43.832;5.974;2022-07-23T04:13:55;95310.47;;;33.30;39.53
61674;BME280;47573;43.832;5.974;2022-07-23T04:18:56;95299.72;;;33.28;39.09
61674;BME280;47573;43.832;5.974;2022-07-23T04:23:57;95307.69;;;33.30;39.59
61674;BME280;47573;43.832;5.974;2022-07-23T04:28:58;95322.13;;;33.26;39.24
61674;BME280;47573;43.832;5.974;2022-07-23T04:33:58;95349.53;;;33.28;39.39
61674;BME280;47573;43.832;5.974;2022-07-23T04:39:00;95362.84;;;33.26;39.12
61674;BME280;47573;43.832;5.974;2022-07-23T04:44:01;95356.06;;;33.18;39.39
61674;BME280;47573;43.832;5.974;2022-07-23T04:49:02;95369.69;;;33.28;39.47
61674;BME280;47573;43.832;5.974;2022-07-23T04:54:04;95364.06;;;33.34;39.30
61674;BME280;47573;43.832;5.974;2022-07-23T04:59:04;95359.13;;;33.31;39.26
61674;BME280;47573;43.832;5.974;2022-07-23T05:04:05;95358.84;;;33.32;39.07
61674;BME280;47573;43.832;5.974;2022-07-23T05:09:07;95350.31;;;33.28;39.32
61674;BME280;47573;43.832;5.974;2022-07-23T05:14:07;95332.91;;;33.42;38.96
61674;BME280;47573;43.832;5.974;2022-07-23T05:19:08;95333.13;;;33.32;39.34
61674;BME280;47573;43.832;5.974;2022-07-23T05:24:10;95335.56;;;33.33;39.49
61674;BME280;47573;43.832;5.974;2022-07-23T05:29:11;95344.19;;;33.32;39.09
61674;BME280;47573;43.832;5.974;2022-07-23T05:34:11;95340.81;;;33.35;39.01
61674;BME280;47573;43.832;5.974;2022-07-23T05:39:13;95347.47;;;33.34;39.36
61674;BME280;47573;43.832;5.974;2022-07-23T05:44:13;95324.31;;;33.30;38.83
61674;BME280;47573;43.832;5.974;2022-07-23T05:49:14;95334.31;;;33.39;39.23
61674;BME280;47573;43.832;5.974;2022-07-23T05:54:16;95332.69;;;33.38;39.02
61674;BME280;47573;43.832;5.974;2022-07-23T05:59:16;95336.31;;;33.39;38.93
61674;BME280;47573;43.832;5.974;2022-07-23T06:04:17;95341.13;;;32.41;36.78
61674;BME280;47573;43.832;5.974;2022-07-23T06:09:19;95334.53;;;31.26;37.77
61674;BME280;47573;43.832;5.974;2022-07-23T06:14:19;95337.81;;;31.04;37.97
61674;BME280;47573;43.832;5.974;2022-07-23T06:19:19;95335.78;;;30.91;38.87
61674;BME280;47573;43.832;5.974;2022-07-23T06:24:21;95339.00;;;31.45;37.93
61674;BME280;47573;43.832;5.974;2022-07-23T06:29:22;95340.88;;;31.68;36.85
61674;BME280;47573;43.832;5.974;2022-07-23T06:34:22;95348.44;;;32.19;36.77
61674;BME280;47573;43.832;5.974;2022-07-23T06:39:24;95360.91;;;32.81;36.14
61674;BME280;47573;43.832;5.974;2022-07-23T06:44:25;95381.38;;;32.66;35.97
61674;BME280;47573;43.832;5.974;2022-07-23T06:49:25;95368.94;;;32.50;36.16
61674;BME280;47573;43.832;5.974;2022-07-23T06:54:27;95357.50;;;32.38;36.21
61674;BME280;47573;43.832;5.974;2022-07-23T06:59:28;95346.84;;;32.31;36.21
61674;BME280;47573;43.832;5.974;2022-07-23T07:04:28;95339.16;;;32.47;35.86
61674;BME280;47573;43.832;5.974;2022-07-23T07:09:31;95336.09;;;32.30;35.86
61674;BME280;47573;43.832;5.974;2022-07-23T07:14:32;95329.91;;;32.19;36.29
61674;BME280;47573;43.832;5.974;2022-07-23T07:19:32;95340.34;;;32.41;36.22
61674;BME280;47573;43.832;5.974;2022-07-23T07:24:34;95336.69;;;31.52;37.20
61674;BME280;47573;43.832;5.974;2022-07-23T07:29:35;95342.38;;;31.37;37.78
61674;BME280;47573;43.832;5.974;2022-07-23T07:34:35;95347.88;;;31.37;37.76
61674;BME280;47573;43.832;5.974;2022-07-23T07:39:37;95366.59;;;31.45;37.83
61674;BME280;47573;43.832;5.974;2022-07-23T07:44:37;95358.94;;;31.37;37.61
61674;BME280;47573;43.832;5.974;2022-07-23T07:49:38;95366.25;;;31.28;37.60
61674;BME280;47573;43.832;5.974;2022-07-23T07:54:40;95327.78;;;31.13;37.59
61674;BME280;47573;43.832;5.974;2022-07-23T07:59:40;95294.63;;;31.18;37.75
61674;BME280;47573;43.832;5.974;2022-07-23T08:04:41;95316.78;;;31.32;37.24
61674;BME280;47573;43.832;5.974;2022-07-23T08:09:43;95311.28;;;31.32;37.38
61674;BME280;47573;43.832;5.974;2022-07-23T08:14:43;95318.19;;;31.29;37.25
61674;BME280;47573;43.832;5.974;2022-07-23T08:19:44;95343.56;;;31.31;37.34
61674;BME280;47573;43.832;5.974;2022-07-23T08:24:46;95348.38;;;31.21;37.02
61674;BME280;47573;43.832;5.974;2022-07-23T08:29:46;95349.56;;;31.38;36.87
61674;BME280;47573;43.832;5.974;2022-07-23T08:34:46;95353.31;;;31.24;36.85
61674;BME280;47573;43.832;5.974;2022-07-23T08:39:48;95362.47;;;31.19;37.53
61674;BME280;47573;43.832;5.974;2022-07-23T08:44:49;95369.22;;;31.32;36.85
61674;BME280;47573;43.832;5.974;2022-07-23T08:49:50;95372.94;;;31.22;37.17
61674;BME280;47573;43.832;5.974;2022-07-23T08:54:52;95369.75;;;31.34;36.69
61674;BME280;47573;43.832;5.974;2022-07-23T08:59:54;95373.34;;;31.34;37.11
61674;BME280;47573;43.832;5.974;2022-07-23T09:04:54;95377.94;;;31.62;36.32
61674;BME280;47573;43.832;5.974;2022-07-23T09:10:07;95383.47;;;32.05;35.76
61674;BME280;47573;43.832;5.974;2022-07-23T09:15:08;95383.41;;;32.10;35.91
61674;BME280;47573;43.832;5.974;2022-07-23T09:20:12;95389.13;;;32.32;35.50
61674;BME280;47573;43.832;5.974;2022-07-23T09:25:17;95386.16;;;32.10;35.70
61674;BME280;47573;43.832;5.974;2022-07-23T09:30:18;95395.41;;;32.19;35.46
61674;BME280;47573;43.832;5.974;2022-07-23T09:35:19;95388.91;;;32.10;35.77
61674;BME280;47573;43.832;5.974;2022-07-23T09:40:20;95388.81;;;32.15;35.61
61674;BME280;47573;43.832;5.974;2022-07-23T09:45:21;95389.81;;;32.24;35.15
61674;BME280;47573;43.832;5.974;2022-07-23T09:50:21;95380.91;;;32.08;35.50
61674;BME280;47573;43.832;5.974;2022-07-23T09:55:31;95396.03;;;31.73;36.42
61674;BME280;47573;43.832;5.974;2022-07-23T10:00:32;95398.16;;;32.00;36.57
61674;BME280;47573;43.832;5.974;2022-07-23T10:05:34;95399.56;;;32.16;36.23
61674;BME280;47573;43.832;5.974;2022-07-23T10:10:38;95400.41;;;32.17;36.39
61674;BME280;47573;43.832;5.974;2022-07-23T10:15:40;95393.16;;;32.21;37.04
61674;BME280;47573;43.832;5.974;2022-07-23T10:20:41;95393.25;;;32.16;36.32
61674;BME280;47573;43.832;5.974;2022-07-23T10:25:48;95390.38;;;31.84;36.16
61674;BME280;47573;43.832;5.974;2022-07-23T10:30:58;95391.56;;;31.78;36.32
61674;BME280;47573;43.832;5.974;2022-07-23T10:36:06;95392.75;;;31.71;36.09
61674;BME280;47573;43.832;5.974;2022-07-23T10:41:08;95384.84;;;31.84;36.10
61674;BME280;47573;43.832;5.974;2022-07-23T10:46:22;95383.75;;;31.85;35.83
61674;BME280;47573;43.832;5.974;2022-07-23T10:51:23;95382.47;;;31.96;35.93
61674;BME280;47573;43.832;5.974;2022-07-23T10:56:51;95376.88;;;32.19;36.20
61674;BME280;47573;43.832;5.974;2022-07-23T11:02:22;95384.47;;;32.27;36.25
61674;BME280;47573;43.832;5.974;2022-07-23T11:07:22;95374.78;;;32.30;36.32
61674;BME280;47573;43.832;5.974;2022-07-23T11:12:34;95359.75;;;32.36;36.72
61674;BME280;47573;43.832;5.974;2022-07-23T11:17:37;95369.56;;;32.47;36.73
61674;BME280;47573;43.832;5.974;2022-07-23T11:22:38;95353.00;;;32.42;36.53
61674;BME280;47573;43.832;5.974;2022-07-23T11:27:42;95363.72;;;32.48;36.53
61674;BME280;47573;43.832;5.974;2022-07-23T11:32:42;95359.03;;;32.63;36.72
61674;BME280;47573;43.832;5.974;2022-07-23T11:37:44;95362.00;;;32.66;36.35
61674;BME280;47573;43.832;5.974;2022-07-23T11:42:55;95359.69;;;32.73;36.35
61674;BME280;47573;43.832;5.974;2022-07-23T11:47:56;95349.66;;;32.77;36.74
61674;BME280;47573;43.832;5.974;2022-07-23T11:52:56;95350.47;;;32.91;36.46
61674;BME280;47573;43.832;5.974;2022-07-23T11:57:58;95341.03;;;32.65;35.77
61674;BME280;47573;43.832;5.974;2022-07-23T12:03:00;95334.03;;;32.54;35.89
61674;BME280;47573;43.832;5.974;2022-07-23T12:08:02;95338.16;;;32.38;36.10
61674;BME280;47573;43.832;5.974;2022-07-23T12:13:06;95330.13;;;32.23;36.26
61674;BME280;47573;43.832;5.974;2022-07-23T12:18:09;95320.91;;;32.14;35.97
61674;BME280;47573;43.832;5.974;2022-07-23T12:23:11;95321.25;;;32.26;35.68
61674;BME280;47573;43.832;5.974;2022-07-23T12:28:16;95317.50;;;32.17;36.04
61674;BME280;47573;43.832;5.974;2022-07-23T12:33:22;95314.75;;;32.17;35.89
61674;BME280;47573;43.832;5.974;2022-07-23T12:38:24;95315.78;;;32.21;35.92
61674;BME280;47573;43.832;5.974;2022-07-23T12:43:28;95313.03;;;32.21;35.45
61674;BME280;47573;43.832;5.974;2022-07-23T12:48:31;95309.97;;;32.22;35.13
61674;BME280;47573;43.832;5.974;2022-07-23T12:53:36;95313.97;;;32.30;35.21
61674;BME280;47573;43.832;5.974;2022-07-23T12:58:43;95305.72;;;32.11;35.55
61674;BME280;47573;43.832;5.974;2022-07-23T13:03:55;95305.50;;;32.26;35.49
61674;BME280;47573;43.832;5.974;2022-07-23T13:08:55;95295.94;;;32.19;35.27
61674;BME280;47573;43.832;5.974;2022-07-23T13:13:58;95291.16;;;32.24;35.18
61674;BME280;47573;43.832;5.974;2022-07-23T13:18:59;95301.44;;;32.19;35.62
61674;BME280;47573;43.832;5.974;2022-07-23T13:24:00;95295.22;;;32.27;35.24
61674;BME280;47573;43.832;5.974;2022-07-23T13:29:02;95299.13;;;32.26;35.65
61674;BME280;47573;43.832;5.974;2022-07-23T13:34:03;95296.88;;;32.28;35.31
61674;BME280;47573;43.832;5.974;2022-07-23T13:39:04;95294.19;;;32.23;35.51
61674;BME280;47573;43.832;5.974;2022-07-23T13:44:06;95285.31;;;32.26;35.23
61674;BME280;47573;43.832;5.974;2022-07-23T13:49:06;95282.56;;;32.26;35.36
61674;BME280;47573;43.832;5.974;2022-07-23T13:54:07;95280.50;;;32.31;35.53
61674;BME280;47573;43.832;5.974;2022-07-23T13:59:09;95286.56;;;32.33;35.59
61674;BME280;47573;43.832;5.974;2022-07-23T14:04:09;95275.81;;;32.32;35.79
61674;BME280;47573;43.832;5.974;2022-07-23T14:09:10;95263.63;;;32.33;35.62
61674;BME280;47573;43.832;5.974;2022-07-23T14:14:12;95262.50;;;32.34;35.54
61674;BME280;47573;43.832;5.974;2022-07-23T14:19:12;95267.44;;;32.37;35.71
61674;BME280;47573;43.832;5.974;2022-07-23T14:24:12;95262.72;;;32.37;35.77
61674;BME280;47573;43.832;5.974;2022-07-23T14:29:14;95246.72;;;32.21;35.78
61674;BME280;47573;43.832;5.974;2022-07-23T14:34:15;95257.25;;;32.19;35.88
61674;BME280;47573;43.832;5.974;2022-07-23T14:39:15;95252.25;;;32.21;36.03
61674;BME280;47573;43.832;5.974;2022-07-23T14:44:17;95250.44;;;32.30;36.16
61674;BME280;47573;43.832;5.974;2022-07-23T14:49:18;95236.69;;;32.25;36.45
61674;BME280;47573;43.832;5.974;2022-07-23T14:54:18;95235.91;;;32.38;36.07
61674;BME280;47573;43.832;5.974;2022-07-23T14:59:20;95241.44;;;32.38;36.14
61674;BME280;47573;43.832;5.974;2022-07-23T15:04:21;95234.28;;;32.37;36.73
61674;BME280;47573;43.832;5.974;2022-07-23T15:09:22;95230.81;;;32.45;36.65
61674;BME280;47573;43.832;5.974;2022-07-23T15:14:23;95238.75;;;32.33;36.55
61674;BME280;47573;43.832;5.974;2022-07-23T15:19:24;95235.47;;;32.31;36.92
61674;BME280;47573;43.832;5.974;2022-07-23T15:24:24;95224.84;;;32.38;36.49
61674;BME280;47573;43.832;5.974;2022-07-23T15:29:26;95218.72;;;32.41;36.58
61674;BME280;47573;43.832;5.974;2022-07-23T15:34:28;95228.03;;;32.45;37.01
61674;BME280;47573;43.832;5.974;2022-07-23T15:39:29;95235.06;;;32.37;36.88
61674;BME280;47573;43.832;5.974;2022-07-23T15:44:31;95223.63;;;32.44;37.07
61674;BME280;47573;43.832;5.974;2022-07-23T15:49:31;95223.25;;;32.51;37.20
61674;BME280;47573;43.832;5.974;2022-07-23T15:54:32;95220.34;;;32.42;37.02
61674;BME280;47573;43.832;5.974;2022-07-23T15:59:34;95224.84;;;32.38;37.09
61674;BME280;47573;43.832;5.974;2022-07-23T16:04:34;95220.97;;;32.39;37.42
61674;BME280;47573;43.832;5.974;2022-07-23T16:09:35;95215.03;;;32.45;37.48
61674;BME280;47573;43.832;5.974;2022-07-23T16:14:37;95215.09;;;32.27;37.42
61674;BME280;47573;43.832;5.974;2022-07-23T16:19:38;95226.25;;;32.22;37.66
61674;BME280;47573;43.832;5.974;2022-07-23T16:24:38;95220.63;;;32.27;37.66
61674;BME280;47573;43.832;5.974;2022-07-23T16:29:40;95206.22;;;32.30;37.32
61674;BME280;47573;43.832;5.974;2022-07-23T16:34:41;95213.75;;;32.11;38.00
61674;BME280;47573;43.832;5.974;2022-07-23T16:39:42;95218.88;;;32.31;37.55
61674;BME280;47573;43.832;5.974;2022-07-23T16:44:44;95223.91;;;32.29;37.85
61674;BME280;47573;43.832;5.974;2022-07-23T16:49:45;95218.72;;;32.41;37.52
61674;BME280;47573;43.832;5.974;2022-07-23T16:54:45;95220.72;;;32.22;37.95
61674;BME280;47573;43.832;5.974;2022-07-23T16:59:47;95226.03;;;32.18;38.24
61674;BME280;47573;43.832;5.974;2022-07-23T17:04:48;95225.63;;;32.25;38.04
61674;BME280;47573;43.832;5.974;2022-07-23T17:09:49;95215.53;;;32.34;37.75
61674;BME280;47573;43.832;5.974;2022-07-23T17:14:50;95214.59;;;32.25;38.06
61674;BME280;47573;43.832;5.974;2022-07-23T17:19:51;95225.44;;;32.35;38.60
61674;BME280;47573;43.832;5.974;2022-07-23T17:24:51;95221.75;;;32.26;38.51
61674;BME280;47573;43.832;5.974;2022-07-23T17:29:53;95229.16;;;32.30;38.32
61674;BME280;47573;43.832;5.974;2022-07-23T17:34:54;95217.22;;;32.16;38.53
61674;BME280;47573;43.832;5.974;2022-07-23T17:39:54;95220.97;;;32.39;38.27
61674;BME280;47573;43.832;5.974;2022-07-23T17:44:56;95228.53;;;32.33;38.64
61674;BME280;47573;43.832;5.974;2022-07-23T17:49:57;95230.00;;;32.12;38.97
61674;BME280;47573;43.832;5.974;2022-07-23T17:54:57;95237.59;;;32.66;38.58
61674;BME280;47573;43.832;5.974;2022-07-23T17:59:59;95238.44;;;32.80;39.03
61674;BME280;47573;43.832;5.974;2022-07-23T18:04:59;95247.44;;;32.99;38.89
61674;BME280;47573;43.832;5.974;2022-07-23T18:10:00;95242.44;;;33.01;40.46
61674;BME280;47573;43.832;5.974;2022-07-23T18:15:03;95253.88;;;32.81;44.95
61674;BME280;47573;43.832;5.974;2022-07-23T18:20:05;95255.81;;;32.81;45.12
61674;BME280;47573;43.832;5.974;2022-07-23T18:25:09;95268.53;;;32.95;44.83
61674;BME280;47573;43.832;5.974;2022-07-23T18:30:12;95268.84;;;32.80;45.29
61674;BME280;47573;43.832;5.974;2022-07-23T18:35:12;95279.78;;;32.58;45.51
61674;BME280;47573;43.832;5.974;2022-07-23T18:40:14;95277.41;;;32.19;45.85
61674;BME280;47573;43.832;5.974;2022-07-23T18:45:16;95277.13;;;32.53;45.51
61674;BME280;47573;43.832;5.974;2022-07-23T18:50:17;95277.72;;;32.50;45.53
61674;BME280;47573;43.832;5.974;2022-07-23T18:55:17;95276.72;;;32.27;45.93
61674;BME280;47573;43.832;5.974;2022-07-23T19:00:19;95282.13;;;32.19;45.74
61674;BME280;47573;43.832;5.974;2022-07-23T19:05:20;95285.94;;;32.04;46.31
61674;BME280;47573;43.832;5.974;2022-07-23T19:10:21;95293.16;;;32.19;45.90
61674;BME280;47573;43.832;5.974;2022-07-23T19:15:23;95292.00;;;32.06;45.89
61674;BME280;47573;43.832;5.974;2022-07-23T19:20:23;95296.06;;;31.95;46.13
61674;BME280;47573;43.832;5.974;2022-07-23T19:25:24;95299.88;;;31.38;46.96
61674;BME280;47573;43.832;5.974;2022-07-23T19:30:26;95308.19;;;31.57;46.39
61674;BME280;47573;43.832;5.974;2022-07-23T19:35:26;95314.50;;;31.39;46.67
61674;BME280;47573;43.832;5.974;2022-07-23T19:40:27;95323.50;;;31.49;46.66
61674;BME280;47573;43.832;5.974;2022-07-23T19:45:29;95320.03;;;31.15;47.30
61674;BME280;47573;43.832;5.974;2022-07-23T19:50:29;95328.31;;;31.15;47.09
61674;BME280;47573;43.832;5.974;2022-07-23T19:55:30;95346.75;;;30.96;47.49
61674;BME280;47573;43.832;5.974;2022-07-23T20:00:32;95341.53;;;30.66;48.63
61674;BME280;47573;43.832;5.974;2022-07-23T20:05:33;95346.22;;;30.65;48.15
61674;BME280;47573;43.832;5.974;2022-07-23T20:10:36;95357.41;;;30.79;48.10
61674;BME280;47573;43.832;5.974;2022-07-23T20:15:41;95355.06;;;30.34;49.05
61674;BME280;47573;43.832;5.974;2022-07-23T20:20:41;95372.56;;;30.14;49.70
61674;BME280;47573;43.832;5.974;2022-07-23T20:25:42;95369.38;;;29.48;51.11
61674;BME280;47573;43.832;5.974;2022-07-23T20:30:44;95385.31;;;29.51;50.95
61674;BME280;47573;43.832;5.974;2022-07-23T20:35:44;95391.84;;;29.65;50.85
61674;BME280;47573;43.832;5.974;2022-07-23T20:40:45;95398.28;;;29.99;50.13
61674;BME280;47573;43.832;5.974;2022-07-23T20:45:47;95399.66;;;29.48;51.24
61674;BME280;47573;43.832;5.974;2022-07-23T20:50:48;95391.44;;;29.92;50.11
61674;BME280;47573;43.832;5.974;2022-07-23T20:55:49;95396.47;;;29.16;51.72
61674;BME280;47573;43.832;5.974;2022-07-23T21:00:51;95404.78;;;28.86;52.60
61674;BME280;47573;43.832;5.974;2022-07-23T21:05:51;95410.06;;;29.56;50.86
61674;BME280;47573;43.832;5.974;2022-07-23T21:10:52;95410.00;;;29.66;50.52
61674;BME280;47573;43.832;5.974;2022-07-23T21:15:54;95420.78;;;29.53;50.93
61674;BME280;47573;43.832;5.974;2022-07-23T21:20:54;95414.94;;;29.69;50.44
61674;BME280;47573;43.832;5.974;2022-07-23T21:25:55;95419.53;;;30.28;49.14
61674;BME280;47573;43.832;5.974;2022-07-23T21:30:57;95424.84;;;29.70;50.14
61674;BME280;47573;43.832;5.974;2022-07-23T21:35:57;95415.03;;;29.49;50.75
61674;BME280;47573;43.832;5.974;2022-07-23T21:40:58;95416.94;;;30.07;49.17
61674;BME280;47573;43.832;5.974;2022-07-23T21:46:00;95416.25;;;30.31;48.67
61674;BME280;47573;43.832;5.974;2022-07-23T21:51:01;95413.41;;;29.48;50.56
61674;BME280;47573;43.832;5.974;2022-07-23T21:56:02;95418.28;;;29.61;50.21
61674;BME280;47573;43.832;5.974;2022-07-23T22:01:04;95420.00;;;29.47;50.37
61674;BME280;47573;43.832;5.974;2022-07-23T22:06:05;95418.91;;;29.48;50.44
61674;BME280;47573;43.832;5.974;2022-07-23T22:11:05;95420.69;;;29.04;51.43
61674;BME280;47573;43.832;5.974;2022-07-23T22:16:08;95415.44;;;29.22;50.74
61674;BME280;47573;43.832;5.974;2022-07-23T22:21:08;95414.59;;;29.22;50.84
61674;BME280;47573;43.832;5.974;2022-07-23T22:26:09;95414.06;;;29.10;51.03
61674;BME280;47573;43.832;5.974;2022-07-23T22:31:11;95419.56;;;29.10;51.18
61674;BME280;47573;43.832;5.974;2022-07-23T22:36:12;95405.81;;;29.10;51.05
61674;BME280;47573;43.832;5.974;2022-07-23T22:41:12;95414.63;;;29.02;51.47
61674;BME280;47573;43.832;5.974;2022-07-23T22:46:14;95405.34;;;28.68;52.25
61674;BME280;47573;43.832;5.974;2022-07-23T22:51:14;95414.84;;;29.35;50.54
61674;BME280;47573;43.832;5.974;2022-07-23T22:56:15;95405.50;;;30.63;47.54
61674;BME280;47573;43.832;5.974;2022-07-23T23:01:17;95409.63;;;30.94;46.75
61674;BME280;47573;43.832;5.974;2022-07-23T23:06:17;95411.16;;;31.10;46.78
61674;BME280;47573;43.832;5.974;2022-07-23T23:11:18;95405.44;;;31.25;46.48
61674;BME280;47573;43.832;5.974;2022-07-23T23:16:20;95404.78;;;31.33;46.11
61674;BME280;47573;43.832;5.974;2022-07-23T23:21:20;95402.53;;;31.40;45.98
61674;BME280;47573;43.832;5.974;2022-07-23T23:26:21;95398.69;;;31.41;45.96
61674;BME280;47573;43.832;5.974;2022-07-23T23:31:23;95400.31;;;31.42;46.22
61674;BME280;47573;43.832;5.974;2022-07-23T23:36:23;95401.69;;;31.63;45.51
61674;BME280;47573;43.832;5.974;2022-07-23T23:41:24;95401.38;;;31.65;45.27
61674;BME280;47573;43.832;5.974;2022-07-23T23:46:26;95406.09;;;31.64;45.55
61674;BME280;47573;43.832;5.974;2022-07-23T23:51:26;95400.72;;;31.73;45.49
61674;BME280;47573;43.832;5.974;2022-07-23T23:56:27;95399.78;;;31.83;45.30
